sensor_id;sensor_type;location;lat;lon;timestamp;temperature;humidity
33927;DHT22;20485;50.992;5.550;2023-04-24T00:00:11;8.90;99.90
33927;DHT22;20485;50.992;5.550;2023-04-24T00:02:40;8.80;99.90
33927;DHT22;20485;50.992;5.550;2023-04-24T00:05:07;8.80;99.90
33927;DHT22;20485;50.992;5.550;2023-04-24T00:07:33;8.80;99.90
33927;DHT22;20485;50.992;5.550;2023-04-24T00:09:59;8.90;99.90
33927;DHT22;20485;50.992;5.550;2023-04-24T00:12:26;8.80;99.90
33927;DHT22;20485;50.992;5.550;2023-04-24T00:14:52;8.80;99.90
33927;DHT22;20485;50.992;5.550;2023-04-24T00:17:18;8.80;99.90
33927;DHT22;20485;50.992;5.550;2023-04-24T00:20:08;8.70;99.90
33927;DHT22;20485;50.992;5.550;2023-04-24T00:22:36;8.70;99.90
33927;DHT22;20485;50.992;5.550;2023-04-24T00:25:01;8.70;99.90
33927;DHT22;20485;50.992;5.550;2023-04-24T00:27:27;8.80;99.90
33927;DHT22;20485;50.992;5.550;2023-04-24T00:29:53;8.70;99.90
33927;DHT22;20485;50.992;5.550;2023-04-24T00:32:28;8.80;99.90
33927;DHT22;20485;50.992;5.550;2023-04-24T00:34:54;8.80;99.90
33927;DHT22;20485;50.992;5.550;2023-04-24T00:37:20;8.80;99.90
33927;DHT22;20485;50.992;5.550;2023-04-24T00:39:46;8.80;99.90
33927;DHT22;20485;50.992;5.550;2023-04-24T00:42:12;8.80;99.90
33927;DHT22;20485;50.992;5.550;2023-04-24T00:44:37;8.70;99.90
33927;DHT22;20485;50.992;5.550;2023-04-24T00:47:03;8.70;99.90
33927;DHT22;20485;50.992;5.550;2023-04-24T00:49:29;8.80;99.90
33927;DHT22;20485;50.992;5.550;2023-04-24T00:51:58;8.80;99.90
33927;DHT22;20485;50.992;5.550;2023-04-24T00:54:24;8.70;99.90
33927;DHT22;20485;50.992;5.550;2023-04-24T00:56:50;8.70;99.90
33927;DHT22;20485;50.992;5.550;2023-04-24T00:59:17;8.70;99.90
33927;DHT22;20485;50.992;5.550;2023-04-24T01:01:46;8.80;99.90
33927;DHT22;20485;50.992;5.550;2023-04-24T01:04:12;8.70;99.90
33927;DHT22;20485;50.992;5.550;2023-04-24T01:06:39;8.70;99.90
33927;DHT22;20485;50.992;5.550;2023-04-24T01:09:06;8.70;99.90
33927;DHT22;20485;50.992;5.550;2023-04-24T01:11:33;8.70;99.90
33927;DHT22;20485;50.992;5.550;2023-04-24T01:13:59;8.70;99.90
33927;DHT22;20485;50.992;5.550;2023-04-24T01:16:25;8.70;99.90
33927;DHT22;20485;50.992;5.550;2023-04-24T01:18:51;8.70;99.90
33927;DHT22;20485;50.992;5.550;2023-04-24T01:21:18;8.70;99.90
33927;DHT22;20485;50.992;5.550;2023-04-24T01:23:45;8.70;99.90
33927;DHT22;20485;50.992;5.550;2023-04-24T01:26:13;8.70;99.90
33927;DHT22;20485;50.992;5.550;2023-04-24T01:28:39;8.70;99.90
33927;DHT22;20485;50.992;5.550;2023-04-24T01:31:05;8.70;99.90
33927;DHT22;20485;50.992;5.550;2023-04-24T01:33:32;8.70;99.90
33927;DHT22;20485;50.992;5.550;2023-04-24T01:35:58;8.70;99.90
33927;DHT22;20485;50.992;5.550;2023-04-24T01:38:23;8.70;99.90
33927;DHT22;20485;50.992;5.550;2023-04-24T01:40:50;8.60;99.90
33927;DHT22;20485;50.992;5.550;2023-04-24T01:43:16;8.70;99.90
33927;DHT22;20485;50.992;5.550;2023-04-24T01:45:42;8.70;99.90
33927;DHT22;20485;50.992;5.550;2023-04-24T01:48:07;8.70;99.90
33927;DHT22;20485;50.992;5.550;2023-04-24T01:50:33;8.60;99.90
33927;DHT22;20485;50.992;5.550;2023-04-24T01:52:59;8.60;99.90
33927;DHT22;20485;50.992;5.550;2023-04-24T01:55:25;8.60;99.90
33927;DHT22;20485;50.992;5.550;2023-04-24T01:57:52;8.60;99.90
33927;DHT22;20485;50.992;5.550;2023-04-24T02:00:20;8.60;99.90
33927;DHT22;20485;50.992;5.550;2023-04-24T02:02:46;8.50;99.90
33927;DHT22;20485;50.992;5.550;2023-04-24T02:05:12;8.50;99.90
33927;DHT22;20485;50.992;5.550;2023-04-24T02:07:37;8.50;99.90
33927;DHT22;20485;50.992;5.550;2023-04-24T02:10:04;8.50;99.90
33927;DHT22;20485;50.992;5.550;2023-04-24T02:12:30;8.50;99.90
33927;DHT22;20485;50.992;5.550;2023-04-24T02:14:55;8.60;99.90
33927;DHT22;20485;50.992;5.550;2023-04-24T02:17:21;8.60;99.90
33927;DHT22;20485;50.992;5.550;2023-04-24T02:19:48;8.50;99.90
33927;DHT22;20485;50.992;5.550;2023-04-24T02:22:13;8.50;99.90
33927;DHT22;20485;50.992;5.550;2023-04-24T02:24:39;8.50;99.90
33927;DHT22;20485;50.992;5.550;2023-04-24T02:27:05;8.50;99.90
33927;DHT22;20485;50.992;5.550;2023-04-24T02:29:31;8.50;99.90
33927;DHT22;20485;50.992;5.550;2023-04-24T02:31:57;8.50;99.90
33927;DHT22;20485;50.992;5.550;2023-04-24T02:34:23;8.50;99.90
33927;DHT22;20485;50.992;5.550;2023-04-24T02:36:49;8.50;99.90
33927;DHT22;20485;50.992;5.550;2023-04-24T02:39:15;8.50;99.90
33927;DHT22;20485;50.992;5.550;2023-04-24T02:41:44;8.50;99.90
33927;DHT22;20485;50.992;5.550;2023-04-24T02:44:10;8.40;99.90
33927;DHT22;20485;50.992;5.550;2023-04-24T02:46:35;8.40;99.90
33927;DHT22;20485;50.992;5.550;2023-04-24T02:49:01;8.40;99.90
33927;DHT22;20485;50.992;5.550;2023-04-24T02:51:28;8.40;99.90
33927;DHT22;20485;50.992;5.550;2023-04-24T02:53:53;8.40;99.90
33927;DHT22;20485;50.992;5.550;2023-04-24T02:56:19;8.30;99.90
33927;DHT22;20485;50.992;5.550;2023-04-24T02:58:45;8.30;99.90
33927;DHT22;20485;50.992;5.550;2023-04-24T03:01:11;8.30;99.90
33927;DHT22;20485;50.992;5.550;2023-04-24T03:03:38;8.30;99.90
33927;DHT22;20485;50.992;5.550;2023-04-24T03:06:04;8.20;99.90
33927;DHT22;20485;50.992;5.550;2023-04-24T03:08:31;8.20;99.90
33927;DHT22;20485;50.992;5.550;2023-04-24T03:10:57;8.20;99.90
33927;DHT22;20485;50.992;5.550;2023-04-24T03:13:23;8.20;99.90
33927;DHT22;20485;50.992;5.550;2023-04-24T03:15:51;8.20;99.90
33927;DHT22;20485;50.992;5.550;2023-04-24T03:18:18;8.20;99.90
33927;DHT22;20485;50.992;5.550;2023-04-24T03:20:45;8.20;99.90
33927;DHT22;20485;50.992;5.550;2023-04-24T03:23:12;8.20;99.90
33927;DHT22;20485;50.992;5.550;2023-04-24T03:25:38;8.20;99.90
33927;DHT22;20485;50.992;5.550;2023-04-24T03:28:04;8.10;99.90
33927;DHT22;20485;50.992;5.550;2023-04-24T03:30:30;8.20;99.90
33927;DHT22;20485;50.992;5.550;2023-04-24T03:32:55;8.10;99.90
33927;DHT22;20485;50.992;5.550;2023-04-24T03:35:22;8.30;99.90
33927;DHT22;20485;50.992;5.550;2023-04-24T03:37:47;8.10;99.90
33927;DHT22;20485;50.992;5.550;2023-04-24T03:40:13;8.10;99.90
33927;DHT22;20485;50.992;5.550;2023-04-24T03:42:39;8.10;99.90
33927;DHT22;20485;50.992;5.550;2023-04-24T03:45:05;8.10;99.90
33927;DHT22;20485;50.992;5.550;2023-04-24T03:47:31;8.10;99.90
33927;DHT22;20485;50.992;5.550;2023-04-24T03:49:57;8.10;99.90
33927;DHT22;20485;50.992;5.550;2023-04-24T03:52:22;8.10;99.90
33927;DHT22;20485;50.992;5.550;2023-04-24T03:54:48;8.00;99.90
33927;DHT22;20485;50.992;5.550;2023-04-24T03:57:14;8.00;99.90
33927;DHT22;20485;50.992;5.550;2023-04-24T03:59:40;7.90;99.90
33927;DHT22;20485;50.992;5.550;2023-04-24T04:02:05;8.00;99.90
33927;DHT22;20485;50.992;5.550;2023-04-24T04:04:31;8.00;99.90
33927;DHT22;20485;50.992;5.550;2023-04-24T04:06:57;8.00;99.90
33927;DHT22;20485;50.992;5.550;2023-04-24T04:09:26;7.90;99.90
33927;DHT22;20485;50.992;5.550;2023-04-24T04:11:52;7.90;99.90
33927;DHT22;20485;50.992;5.550;2023-04-24T04:14:18;8.00;99.90
33927;DHT22;20485;50.992;5.550;2023-04-24T04:16:43;7.90;99.90
33927;DHT22;20485;50.992;5.550;2023-04-24T04:19:09;7.90;99.90
33927;DHT22;20485;50.992;5.550;2023-04-24T04:21:35;7.90;99.90
33927;DHT22;20485;50.992;5.550;2023-04-24T04:24:00;7.90;99.90
33927;DHT22;20485;50.992;5.550;2023-04-24T04:26:26;7.90;99.90
33927;DHT22;20485;50.992;5.550;2023-04-24T04:28:52;7.90;99.90
33927;DHT22;20485;50.992;5.550;2023-04-24T04:31:19;7.90;99.90
33927;DHT22;20485;50.992;5.550;2023-04-24T04:33:46;7.90;99.90
33927;DHT22;20485;50.992;5.550;2023-04-24T04:36:12;7.90;99.90
33927;DHT22;20485;50.992;5.550;2023-04-24T04:38:37;7.90;99.90
33927;DHT22;20485;50.992;5.550;2023-04-24T04:41:03;7.90;99.90
33927;DHT22;20485;50.992;5.550;2023-04-24T04:43:29;7.90;99.90
33927;DHT22;20485;50.992;5.550;2023-04-24T04:45:57;7.90;99.90
33927;DHT22;20485;50.992;5.550;2023-04-24T04:48:23;7.80;99.90
33927;DHT22;20485;50.992;5.550;2023-04-24T04:50:48;7.80;99.90
33927;DHT22;20485;50.992;5.550;2023-04-24T04:53:14;7.90;99.90
33927;DHT22;20485;50.992;5.550;2023-04-24T04:55:40;7.80;99.90
33927;DHT22;20485;50.992;5.550;2023-04-24T04:58:06;7.80;99.90
33927;DHT22;20485;50.992;5.550;2023-04-24T05:00:32;7.80;99.90
33927;DHT22;20485;50.992;5.550;2023-04-24T05:03:01;7.80;99.90
33927;DHT22;20485;50.992;5.550;2023-04-24T05:05:27;7.80;99.90
33927;DHT22;20485;50.992;5.550;2023-04-24T05:07:53;7.80;99.90
33927;DHT22;20485;50.992;5.550;2023-04-24T05:10:21;7.80;99.90
33927;DHT22;20485;50.992;5.550;2023-04-24T05:12:46;7.80;99.90
33927;DHT22;20485;50.992;5.550;2023-04-24T05:15:12;7.80;99.90
33927;DHT22;20485;50.992;5.550;2023-04-24T05:17:38;7.70;99.90
33927;DHT22;20485;50.992;5.550;2023-04-24T05:20:05;7.70;99.90
33927;DHT22;20485;50.992;5.550;2023-04-24T05:22:32;7.80;99.90
33927;DHT22;20485;50.992;5.550;2023-04-24T05:24:58;7.80;99.90
33927;DHT22;20485;50.992;5.550;2023-04-24T05:27:24;7.80;99.90
33927;DHT22;20485;50.992;5.550;2023-04-24T05:29:50;7.80;99.90
33927;DHT22;20485;50.992;5.550;2023-04-24T05:32:16;7.80;99.90
33927;DHT22;20485;50.992;5.550;2023-04-24T05:34:42;7.80;99.90
33927;DHT22;20485;50.992;5.550;2023-04-24T05:37:07;7.80;99.90
33927;DHT22;20485;50.992;5.550;2023-04-24T05:39:35;7.80;99.90
33927;DHT22;20485;50.992;5.550;2023-04-24T05:42:01;7.80;99.90
33927;DHT22;20485;50.992;5.550;2023-04-24T05:44:28;7.80;99.90
33927;DHT22;20485;50.992;5.550;2023-04-24T05:46:54;7.70;99.90
33927;DHT22;20485;50.992;5.550;2023-04-24T05:49:21;7.80;99.90
33927;DHT22;20485;50.992;5.550;2023-04-24T06:00:24;7.70;99.90
33927;DHT22;20485;50.992;5.550;2023-04-24T06:02:50;7.70;99.90
33927;DHT22;20485;50.992;5.550;2023-04-24T06:05:17;7.70;99.90
33927;DHT22;20485;50.992;5.550;2023-04-24T06:07:44;7.70;99.90
33927;DHT22;20485;50.992;5.550;2023-04-24T06:10:10;7.70;99.90
33927;DHT22;20485;50.992;5.550;2023-04-24T06:12:36;7.70;99.90
33927;DHT22;20485;50.992;5.550;2023-04-24T06:15:03;7.70;99.90
33927;DHT22;20485;50.992;5.550;2023-04-24T06:17:28;7.60;99.90
33927;DHT22;20485;50.992;5.550;2023-04-24T06:19:54;7.60;99.90
33927;DHT22;20485;50.992;5.550;2023-04-24T06:22:20;7.50;99.90
33927;DHT22;20485;50.992;5.550;2023-04-24T06:24:45;7.60;99.90
33927;DHT22;20485;50.992;5.550;2023-04-24T06:27:12;7.50;99.90
33927;DHT22;20485;50.992;5.550;2023-04-24T06:29:38;7.50;99.90
33927;DHT22;20485;50.992;5.550;2023-04-24T06:32:03;7.50;99.90
33927;DHT22;20485;50.992;5.550;2023-04-24T06:34:29;7.50;99.90
33927;DHT22;20485;50.992;5.550;2023-04-24T06:36:56;7.40;99.90
33927;DHT22;20485;50.992;5.550;2023-04-24T06:39:22;7.40;99.90
33927;DHT22;20485;50.992;5.550;2023-04-24T06:41:47;7.50;99.90
33927;DHT22;20485;50.992;5.550;2023-04-24T06:44:13;7.40;99.90
33927;DHT22;20485;50.992;5.550;2023-04-24T06:46:40;7.40;99.90
33927;DHT22;20485;50.992;5.550;2023-04-24T06:49:06;7.40;99.90
33927;DHT22;20485;50.992;5.550;2023-04-24T06:51:32;7.40;99.90
33927;DHT22;20485;50.992;5.550;2023-04-24T06:53:58;8.70;99.90
33927;DHT22;20485;50.992;5.550;2023-04-24T06:56:25;7.40;99.90
33927;DHT22;20485;50.992;5.550;2023-04-24T06:58:51;7.40;99.90
33927;DHT22;20485;50.992;5.550;2023-04-24T07:01:17;7.40;99.90
33927;DHT22;20485;50.992;5.550;2023-04-24T07:03:43;7.40;99.90
33927;DHT22;20485;50.992;5.550;2023-04-24T07:06:09;7.30;99.90
33927;DHT22;20485;50.992;5.550;2023-04-24T07:08:36;7.40;99.90
33927;DHT22;20485;50.992;5.550;2023-04-24T07:11:02;7.30;99.90
33927;DHT22;20485;50.992;5.550;2023-04-24T07:13:28;7.30;99.90
33927;DHT22;20485;50.992;5.550;2023-04-24T07:15:54;7.40;99.90
33927;DHT22;20485;50.992;5.550;2023-04-24T07:18:23;7.40;99.90
33927;DHT22;20485;50.992;5.550;2023-04-24T07:20:49;7.30;99.90
33927;DHT22;20485;50.992;5.550;2023-04-24T07:23:19;7.40;99.90
33927;DHT22;20485;50.992;5.550;2023-04-24T07:25:44;7.40;99.90
33927;DHT22;20485;50.992;5.550;2023-04-24T07:28:10;7.40;99.90
33927;DHT22;20485;50.992;5.550;2023-04-24T07:30:36;7.40;99.90
33927;DHT22;20485;50.992;5.550;2023-04-24T07:33:01;7.40;99.90
33927;DHT22;20485;50.992;5.550;2023-04-24T07:35:27;7.50;99.90
33927;DHT22;20485;50.992;5.550;2023-04-24T07:37:53;7.50;99.90
33927;DHT22;20485;50.992;5.550;2023-04-24T07:40:19;7.50;99.90
33927;DHT22;20485;50.992;5.550;2023-04-24T07:42:45;7.50;99.90
33927;DHT22;20485;50.992;5.550;2023-04-24T07:45:10;7.40;99.90
33927;DHT22;20485;50.992;5.550;2023-04-24T07:47:37;7.50;99.90
33927;DHT22;20485;50.992;5.550;2023-04-24T07:50:05;7.50;99.90
33927;DHT22;20485;50.992;5.550;2023-04-24T07:52:31;7.50;99.90
33927;DHT22;20485;50.992;5.550;2023-04-24T07:54:56;7.40;99.90
33927;DHT22;20485;50.992;5.550;2023-04-24T07:57:24;7.40;99.90
33927;DHT22;20485;50.992;5.550;2023-04-24T07:59:50;7.40;99.90
33927;DHT22;20485;50.992;5.550;2023-04-24T08:02:16;7.40;99.90
33927;DHT22;20485;50.992;5.550;2023-04-24T08:04:42;7.40;99.90
33927;DHT22;20485;50.992;5.550;2023-04-24T08:07:08;7.50;99.90
33927;DHT22;20485;50.992;5.550;2023-04-24T08:09:34;7.40;99.90
33927;DHT22;20485;50.992;5.550;2023-04-24T08:11:59;7.30;99.90
33927;DHT22;20485;50.992;5.550;2023-04-24T08:14:26;7.30;99.90
33927;DHT22;20485;50.992;5.550;2023-04-24T08:16:54;7.20;99.90
33927;DHT22;20485;50.992;5.550;2023-04-24T08:19:20;7.20;99.90
33927;DHT22;20485;50.992;5.550;2023-04-24T08:21:46;6.00;99.90
33927;DHT22;20485;50.992;5.550;2023-04-24T08:24:11;7.30;99.90
33927;DHT22;20485;50.992;5.550;2023-04-24T08:26:37;7.30;99.90
33927;DHT22;20485;50.992;5.550;2023-04-24T08:29:03;7.30;99.90
33927;DHT22;20485;50.992;5.550;2023-04-24T08:31:28;7.30;99.90
33927;DHT22;20485;50.992;5.550;2023-04-24T08:33:55;7.30;99.90
33927;DHT22;20485;50.992;5.550;2023-04-24T08:36:20;7.40;99.90
33927;DHT22;20485;50.992;5.550;2023-04-24T08:38:46;7.40;99.90
33927;DHT22;20485;50.992;5.550;2023-04-24T08:41:14;7.40;99.90
33927;DHT22;20485;50.992;5.550;2023-04-24T08:43:41;7.50;99.90
33927;DHT22;20485;50.992;5.550;2023-04-24T08:46:07;7.60;99.90
33927;DHT22;20485;50.992;5.550;2023-04-24T08:48:34;7.80;99.90
33927;DHT22;20485;50.992;5.550;2023-04-24T08:51:00;8.10;99.90
33927;DHT22;20485;50.992;5.550;2023-04-24T08:53:27;8.30;99.90
33927;DHT22;20485;50.992;5.550;2023-04-24T08:55:55;8.40;99.90
33927;DHT22;20485;50.992;5.550;2023-04-24T08:58:24;8.50;99.90
33927;DHT22;20485;50.992;5.550;2023-04-24T09:00:51;8.60;99.90
33927;DHT22;20485;50.992;5.550;2023-04-24T09:03:21;8.80;99.90
33927;DHT22;20485;50.992;5.550;2023-04-24T09:05:48;8.90;99.90
33927;DHT22;20485;50.992;5.550;2023-04-24T09:08:17;9.00;99.90
33927;DHT22;20485;50.992;5.550;2023-04-24T09:10:53;9.00;99.90
33927;DHT22;20485;50.992;5.550;2023-04-24T09:13:20;9.30;99.90
33927;DHT22;20485;50.992;5.550;2023-04-24T09:15:46;9.30;99.90
33927;DHT22;20485;50.992;5.550;2023-04-24T09:18:11;9.40;99.90
33927;DHT22;20485;50.992;5.550;2023-04-24T09:21:09;9.30;99.90
33927;DHT22;20485;50.992;5.550;2023-04-24T09:23:35;9.40;99.90
33927;DHT22;20485;50.992;5.550;2023-04-24T09:26:03;9.40;99.90
33927;DHT22;20485;50.992;5.550;2023-04-24T09:28:38;9.30;99.90
33927;DHT22;20485;50.992;5.550;2023-04-24T09:31:09;9.30;99.90
33927;DHT22;20485;50.992;5.550;2023-04-24T09:33:36;9.00;99.90
33927;DHT22;20485;50.992;5.550;2023-04-24T09:36:02;8.90;99.90
33927;DHT22;20485;50.992;5.550;2023-04-24T09:41:02;8.90;99.90
33927;DHT22;20485;50.992;5.550;2023-04-24T09:43:29;9.10;99.90
33927;DHT22;20485;50.992;5.550;2023-04-24T09:45:58;9.00;99.90
33927;DHT22;20485;50.992;5.550;2023-04-24T09:48:37;8.80;99.90
33927;DHT22;20485;50.992;5.550;2023-04-24T09:51:05;8.70;99.90
33927;DHT22;20485;50.992;5.550;2023-04-24T09:53:36;8.60;99.90
33927;DHT22;20485;50.992;5.550;2023-04-24T09:56:07;8.50;99.90
33927;DHT22;20485;50.992;5.550;2023-04-24T09:58:35;8.50;99.90
33927;DHT22;20485;50.992;5.550;2023-04-24T10:01:01;8.60;99.90
33927;DHT22;20485;50.992;5.550;2023-04-24T10:03:30;8.70;99.90
33927;DHT22;20485;50.992;5.550;2023-04-24T10:06:02;8.80;99.90
33927;DHT22;20485;50.992;5.550;2023-04-24T10:08:34;9.10;99.90
33927;DHT22;20485;50.992;5.550;2023-04-24T10:11:01;9.30;99.90
33927;DHT22;20485;50.992;5.550;2023-04-24T10:13:28;9.80;99.90
33927;DHT22;20485;50.992;5.550;2023-04-24T10:15:54;10.10;99.90
33927;DHT22;20485;50.992;5.550;2023-04-24T10:18:20;9.90;99.90
33927;DHT22;20485;50.992;5.550;2023-04-24T10:20:47;9.90;99.90
33927;DHT22;20485;50.992;5.550;2023-04-24T10:23:13;10.30;99.90
33927;DHT22;20485;50.992;5.550;2023-04-24T10:25:39;10.70;99.90
33927;DHT22;20485;50.992;5.550;2023-04-24T10:28:05;10.70;99.90
33927;DHT22;20485;50.992;5.550;2023-04-24T10:30:33;10.60;99.90
33927;DHT22;20485;50.992;5.550;2023-04-24T10:33:05;10.60;99.90
33927;DHT22;20485;50.992;5.550;2023-04-24T10:35:34;10.40;99.90
33927;DHT22;20485;50.992;5.550;2023-04-24T10:38:02;10.30;99.90
33927;DHT22;20485;50.992;5.550;2023-04-24T10:40:34;10.20;99.90
33927;DHT22;20485;50.992;5.550;2023-04-24T10:43:05;10.00;99.90
33927;DHT22;20485;50.992;5.550;2023-04-24T10:45:33;9.80;99.90
33927;DHT22;20485;50.992;5.550;2023-04-24T10:48:01;9.40;99.90
33927;DHT22;20485;50.992;5.550;2023-04-24T10:50:28;9.40;99.90
33927;DHT22;20485;50.992;5.550;2023-04-24T10:53:06;9.30;99.90
33927;DHT22;20485;50.992;5.550;2023-04-24T10:55:48;9.50;99.90
33927;DHT22;20485;50.992;5.550;2023-04-24T10:58:14;9.70;99.90
33927;DHT22;20485;50.992;5.550;2023-04-24T11:00:42;10.10;99.90
33927;DHT22;20485;50.992;5.550;2023-04-24T11:03:27;10.10;99.90
33927;DHT22;20485;50.992;5.550;2023-04-24T11:08:27;10.20;99.90
33927;DHT22;20485;50.992;5.550;2023-04-24T11:10:58;10.20;99.90
33927;DHT22;20485;50.992;5.550;2023-04-24T11:13:27;10.00;99.90
33927;DHT22;20485;50.992;5.550;2023-04-24T11:16:54;10.10;99.90
33927;DHT22;20485;50.992;5.550;2023-04-24T11:22:01;10.20;99.90
33927;DHT22;20485;50.992;5.550;2023-04-24T11:24:28;10.50;99.90
33927;DHT22;20485;50.992;5.550;2023-04-24T11:32:34;10.20;99.90
33927;DHT22;20485;50.992;5.550;2023-04-24T11:35:07;10.30;99.90
33927;DHT22;20485;50.992;5.550;2023-04-24T11:37:41;10.40;99.90
33927;DHT22;20485;50.992;5.550;2023-04-24T11:40:09;10.60;99.90
33927;DHT22;20485;50.992;5.550;2023-04-24T11:42:37;10.80;99.90
33927;DHT22;20485;50.992;5.550;2023-04-24T11:45:08;10.80;99.90
33927;DHT22;20485;50.992;5.550;2023-04-24T11:47:35;10.90;99.90
33927;DHT22;20485;50.992;5.550;2023-04-24T11:50:06;11.00;99.90
33927;DHT22;20485;50.992;5.550;2023-04-24T11:52:36;11.00;99.90
33927;DHT22;20485;50.992;5.550;2023-04-24T11:55:02;10.80;99.90
33927;DHT22;20485;50.992;5.550;2023-04-24T11:57:29;11.00;99.90
33927;DHT22;20485;50.992;5.550;2023-04-24T12:00:03;11.40;99.90
33927;DHT22;20485;50.992;5.550;2023-04-24T12:02:30;11.50;99.90
33927;DHT22;20485;50.992;5.550;2023-04-24T12:04:56;11.50;99.90
33927;DHT22;20485;50.992;5.550;2023-04-24T12:07:22;11.50;99.90
33927;DHT22;20485;50.992;5.550;2023-04-24T12:09:57;11.40;99.90
33927;DHT22;20485;50.992;5.550;2023-04-24T12:12:26;11.40;99.90
33927;DHT22;20485;50.992;5.550;2023-04-24T12:14:56;11.40;99.90
33927;DHT22;20485;50.992;5.550;2023-04-24T12:17:32;11.40;99.90
33927;DHT22;20485;50.992;5.550;2023-04-24T12:20:00;11.80;99.90
33927;DHT22;20485;50.992;5.550;2023-04-24T12:22:27;11.90;99.90
33927;DHT22;20485;50.992;5.550;2023-04-24T12:24:56;11.90;99.90
33927;DHT22;20485;50.992;5.550;2023-04-24T12:27:22;11.90;99.90
33927;DHT22;20485;50.992;5.550;2023-04-24T12:29:55;11.90;99.90
33927;DHT22;20485;50.992;5.550;2023-04-24T12:32:20;11.80;99.90
33927;DHT22;20485;50.992;5.550;2023-04-24T12:34:46;11.70;99.90
33927;DHT22;20485;50.992;5.550;2023-04-24T12:37:12;11.50;99.90
33927;DHT22;20485;50.992;5.550;2023-04-24T12:39:38;11.30;99.90
33927;DHT22;20485;50.992;5.550;2023-04-24T12:42:03;11.30;99.90
33927;DHT22;20485;50.992;5.550;2023-04-24T12:44:33;11.30;99.90
33927;DHT22;20485;50.992;5.550;2023-04-24T12:47:00;11.40;99.90
33927;DHT22;20485;50.992;5.550;2023-04-24T12:49:27;11.30;99.90
33927;DHT22;20485;50.992;5.550;2023-04-24T12:51:54;11.50;99.90
33927;DHT22;20485;50.992;5.550;2023-04-24T12:54:19;11.60;99.90
33927;DHT22;20485;50.992;5.550;2023-04-24T12:56:45;11.70;99.90
33927;DHT22;20485;50.992;5.550;2023-04-24T12:59:11;11.70;99.90
33927;DHT22;20485;50.992;5.550;2023-04-24T13:01:37;11.70;99.90
33927;DHT22;20485;50.992;5.550;2023-04-24T13:04:02;11.80;99.90
33927;DHT22;20485;50.992;5.550;2023-04-24T13:06:28;11.90;99.90
33927;DHT22;20485;50.992;5.550;2023-04-24T13:08:54;11.80;99.90
33927;DHT22;20485;50.992;5.550;2023-04-24T13:11:20;11.40;99.90
33927;DHT22;20485;50.992;5.550;2023-04-24T13:13:47;11.30;99.90
33927;DHT22;20485;50.992;5.550;2023-04-24T13:16:13;11.30;99.90
33927;DHT22;20485;50.992;5.550;2023-04-24T13:18:39;11.40;99.90
33927;DHT22;20485;50.992;5.550;2023-04-24T13:21:04;11.50;99.90
33927;DHT22;20485;50.992;5.550;2023-04-24T13:23:30;11.70;99.90
33927;DHT22;20485;50.992;5.550;2023-04-24T13:25:56;11.90;99.90
33927;DHT22;20485;50.992;5.550;2023-04-24T13:28:24;12.10;99.90
33927;DHT22;20485;50.992;5.550;2023-04-24T13:30:51;11.90;99.90
33927;DHT22;20485;50.992;5.550;2023-04-24T13:33:17;11.70;99.90
33927;DHT22;20485;50.992;5.550;2023-04-24T13:35:42;11.70;99.90
33927;DHT22;20485;50.992;5.550;2023-04-24T13:38:08;11.70;99.90
33927;DHT22;20485;50.992;5.550;2023-04-24T13:40:34;11.80;99.90
33927;DHT22;20485;50.992;5.550;2023-04-24T13:43:00;11.80;99.90
33927;DHT22;20485;50.992;5.550;2023-04-24T13:45:26;11.90;99.90
33927;DHT22;20485;50.992;5.550;2023-04-24T13:47:53;11.90;99.90
33927;DHT22;20485;50.992;5.550;2023-04-24T13:50:22;11.90;99.90
33927;DHT22;20485;50.992;5.550;2023-04-24T13:52:48;11.90;99.90
33927;DHT22;20485;50.992;5.550;2023-04-24T13:55:16;12.00;99.90
33927;DHT22;20485;50.992;5.550;2023-04-24T13:57:42;12.10;99.90
33927;DHT22;20485;50.992;5.550;2023-04-24T14:00:08;12.30;99.90
33927;DHT22;20485;50.992;5.550;2023-04-24T14:02:35;12.50;99.90
33927;DHT22;20485;50.992;5.550;2023-04-24T14:05:01;13.00;99.90
33927;DHT22;20485;50.992;5.550;2023-04-24T14:07:29;13.20;99.90
33927;DHT22;20485;50.992;5.550;2023-04-24T14:09:54;12.90;99.90
33927;DHT22;20485;50.992;5.550;2023-04-24T14:12:20;12.60;99.90
33927;DHT22;20485;50.992;5.550;2023-04-24T14:14:47;12.40;99.90
33927;DHT22;20485;50.992;5.550;2023-04-24T14:17:14;12.10;99.90
33927;DHT22;20485;50.992;5.550;2023-04-24T14:19:39;11.90;99.90
33927;DHT22;20485;50.992;5.550;2023-04-24T14:22:05;12.10;99.90
33927;DHT22;20485;50.992;5.550;2023-04-24T14:24:34;12.60;99.90
33927;DHT22;20485;50.992;5.550;2023-04-24T14:27:00;12.60;99.90
33927;DHT22;20485;50.992;5.550;2023-04-24T14:29:26;12.60;99.90
33927;DHT22;20485;50.992;5.550;2023-04-24T14:31:52;12.40;99.90
33927;DHT22;20485;50.992;5.550;2023-04-24T14:34:18;12.40;99.90
33927;DHT22;20485;50.992;5.550;2023-04-24T14:36:45;12.50;99.90
33927;DHT22;20485;50.992;5.550;2023-04-24T14:39:10;12.60;99.90
33927;DHT22;20485;50.992;5.550;2023-04-24T14:41:37;13.40;99.90
33927;DHT22;20485;50.992;5.550;2023-04-24T14:44:04;13.90;99.90
33927;DHT22;20485;50.992;5.550;2023-04-24T14:46:30;13.80;99.90
33927;DHT22;20485;50.992;5.550;2023-04-24T14:48:57;13.60;99.90
33927;DHT22;20485;50.992;5.550;2023-04-24T14:51:26;13.60;99.90
33927;DHT22;20485;50.992;5.550;2023-04-24T14:53:52;13.20;99.90
33927;DHT22;20485;50.992;5.550;2023-04-24T14:56:21;12.90;99.90
33927;DHT22;20485;50.992;5.550;2023-04-24T14:58:46;12.60;99.90
33927;DHT22;20485;50.992;5.550;2023-04-24T15:01:12;12.50;99.90
33927;DHT22;20485;50.992;5.550;2023-04-24T15:03:38;12.60;99.90
33927;DHT22;20485;50.992;5.550;2023-04-24T15:06:08;12.60;99.90
33927;DHT22;20485;50.992;5.550;2023-04-24T15:08:36;12.90;99.90
33927;DHT22;20485;50.992;5.550;2023-04-24T15:11:02;13.20;99.90
33927;DHT22;20485;50.992;5.550;2023-04-24T15:13:28;13.30;99.90
33927;DHT22;20485;50.992;5.550;2023-04-24T15:15:54;13.50;99.90
33927;DHT22;20485;50.992;5.550;2023-04-24T15:18:20;13.50;99.90
33927;DHT22;20485;50.992;5.550;2023-04-24T15:20:46;13.40;99.90
33927;DHT22;20485;50.992;5.550;2023-04-24T15:23:12;13.00;99.90
33927;DHT22;20485;50.992;5.550;2023-04-24T15:25:38;12.90;99.90
33927;DHT22;20485;50.992;5.550;2023-04-24T15:28:04;13.00;99.90
33927;DHT22;20485;50.992;5.550;2023-04-24T15:30:32;13.40;99.90
33927;DHT22;20485;50.992;5.550;2023-04-24T15:33:00;13.30;99.90
33927;DHT22;20485;50.992;5.550;2023-04-24T15:35:25;13.30;99.90
33927;DHT22;20485;50.992;5.550;2023-04-24T15:37:51;13.60;99.90
33927;DHT22;20485;50.992;5.550;2023-04-24T15:40:17;13.90;99.90
33927;DHT22;20485;50.992;5.550;2023-04-24T15:42:43;14.60;99.90
33927;DHT22;20485;50.992;5.550;2023-04-24T15:45:09;14.80;99.90
33927;DHT22;20485;50.992;5.550;2023-04-24T15:47:35;14.50;99.90
33927;DHT22;20485;50.992;5.550;2023-04-24T15:50:02;15.10;99.90
33927;DHT22;20485;50.992;5.550;2023-04-24T15:52:28;14.80;99.90
33927;DHT22;20485;50.992;5.550;2023-04-24T15:54:53;14.30;99.90
33927;DHT22;20485;50.992;5.550;2023-04-24T15:57:20;13.80;99.90
33927;DHT22;20485;50.992;5.550;2023-04-24T15:59:46;13.70;99.90